Time;durP1;ratioP1;P1;durP2;ratioP2;P2;SDS_P1;SDS_P2;PMS_P1;PMS_P2;Temp;Humidity;BMP_temperature;BMP_pressure;BME280_temperature;BME280_humidity;BME280_pressure;Samples;Min_cycle;Max_cycle;Signal;HPM_P1;HPM_P2
2021/06/28 00:00:25;;;;;;;9.02;2.20;;;14.40;86.60;;;;;;5052776;28;20021;-75
2021/06/28 00:02:51;;;;;;;7.05;2.17;;;14.20;87.90;;;;;;5051745;28;20444;-75
2021/06/28 00:05:19;;;;;;;9.00;2.40;;;14.20;88.30;;;;;;5052332;28;20017;-75
2021/06/28 00:07:46;;;;;;;7.65;2.85;;;14.30;87.80;;;;;;5052242;28;20037;-75
2021/06/28 00:10:18;;;;;;;8.90;2.50;;;14.50;86.70;;;;;;5052845;28;20025;-76
2021/06/28 00:12:45;;;;;;;9.73;2.45;;;14.30;88.30;;;;;;5052946;28;20033;-75
2021/06/28 00:15:14;;;;;;;8.43;2.15;;;14.00;89.00;;;;;;5052993;28;20092;-74
2021/06/28 00:17:41;;;;;;;7.78;1.85;;;13.90;88.80;;;;;;5052206;28;20060;-76
2021/06/28 00:20:08;;;;;;;6.95;2.30;;;13.70;88.40;;;;;;5052660;28;20025;-76
2021/06/28 00:22:35;;;;;;;5.68;2.00;;;13.60;89.10;;;;;;5052461;28;20108;-75
2021/06/28 00:25:00;;;;;;;6.28;1.70;;;13.70;89.30;;;;;;5052605;28;20025;-75
2021/06/28 00:27:26;;;;;;;5.63;1.90;;;13.80;88.20;;;;;;5052508;28;20529;-75
2021/06/28 00:29:52;;;;;;;3.35;1.70;;;13.90;87.60;;;;;;5052514;28;20025;-75
2021/06/28 00:32:20;;;;;;;5.18;1.65;;;13.90;86.90;;;;;;5052571;28;20032;-76
2021/06/28 00:34:46;;;;;;;4.55;1.70;;;14.00;86.00;;;;;;5052714;28;20029;-75
2021/06/28 00:37:12;;;;;;;4.88;1.73;;;14.00;85.80;;;;;;5052225;28;20394;-76
2021/06/28 00:39:38;;;;;;;5.35;1.80;;;14.00;85.50;;;;;;5052459;28;20156;-75
2021/06/28 00:42:04;;;;;;;3.83;1.70;;;14.10;85.60;;;;;;5052482;28;20500;-75
2021/06/28 00:44:30;;;;;;;;;;;14.00;85.60;;;;;;5052785;28;20036;-76
2021/06/28 00:46:56;;;;;;;5.57;1.40;;;14.10;85.40;;;;;;5053935;28;20284;-75
2021/06/28 00:49:22;;;;;;;4.90;1.67;;;14.10;84.80;;;;;;5055943;28;20052;-76
2021/06/28 00:51:47;;;;;;;4.78;1.63;;;13.90;85.20;;;;;;5055918;28;20029;-75
2021/06/28 00:54:13;;;;;;;3.10;1.42;;;13.90;85.10;;;;;;5055907;28;20044;-75
2021/06/28 00:56:40;;;;;;;3.35;1.35;;;13.90;84.30;;;;;;5056259;28;20049;-75
2021/06/28 00:59:07;;;;;;;6.13;1.60;;;13.90;84.70;;;;;;5055961;28;20028;-75
2021/06/28 01:01:33;;;;;;;5.53;1.80;;;13.80;85.10;;;;;;5055734;28;20025;-75
2021/06/28 01:03:59;;;;;;;7.85;2.00;;;13.80;85.50;;;;;;5054344;28;20040;-74
2021/06/28 01:06:24;;;;;;;5.22;2.10;;;13.70;85.70;;;;;;5054220;28;20148;-74
2021/06/28 01:08:50;;;;;;;7.03;2.38;;;13.20;87.90;;;;;;5055559;28;20056;-76
2021/06/28 01:11:17;;;;;;;9.50;2.58;;;13.00;90.10;;;;;;5055968;28;20087;-76
2021/06/28 01:13:43;;;;;;;9.63;2.70;;;13.00;90.90;;;;;;5055505;28;20027;-76
2021/06/28 01:16:10;;;;;;;11.05;2.47;;;13.20;90.80;;;;;;5055310;28;20100;-75
2021/06/28 01:18:36;;;;;;;7.05;2.47;;;13.30;90.50;;;;;;5055442;28;20028;-75
2021/06/28 01:21:05;;;;;;;7.60;2.55;;;13.30;90.50;;;;;;5055350;28;20029;-75
2021/06/28 01:23:33;;;;;;;8.10;2.40;;;13.10;90.70;;;;;;5054013;28;20495;-76
2021/06/28 01:26:05;;;;;;;10.52;2.97;;;13.00;91.00;;;;;;5055212;28;20055;-74
2021/06/28 01:28:32;;;;;;;8.10;2.65;;;13.00;91.20;;;;;;5055385;28;20569;-75
2021/06/28 01:30:59;;;;;;;7.43;2.70;;;13.10;91.00;;;;;;5055216;28;20025;-75
2021/06/28 01:33:26;;;;;;;8.85;2.80;;;13.00;90.90;;;;;;5055100;28;20029;-75
2021/06/28 01:35:52;;;;;;;6.93;2.53;;;13.10;91.00;;;;;;5054200;28;20108;-75
2021/06/28 01:38:18;;;;;;;7.28;2.25;;;13.20;90.50;;;;;;5053790;28;20079;-75
2021/06/28 01:40:47;;;;;;;8.02;2.72;;;13.10;90.30;;;;;;5054393;28;20132;-74
2021/06/28 01:43:13;;;;;;;9.02;2.80;;;13.20;90.40;;;;;;5054689;28;20060;-75
2021/06/28 01:45:39;;;;;;;9.02;2.92;;;13.10;90.80;;;;;;5054530;28;20018;-76
2021/06/28 01:48:06;;;;;;;5.50;2.50;;;12.90;91.20;;;;;;5054846;28;20037;-74
2021/06/28 01:50:33;;;;;;;5.75;2.50;;;12.90;91.10;;;;;;5054897;28;20056;-74
2021/06/28 01:53:00;;;;;;;10.25;2.72;;;12.90;91.20;;;;;;5054829;28;20028;-75
2021/06/28 01:55:26;;;;;;;7.85;2.75;;;12.90;91.20;;;;;;5054712;28;20020;-75
2021/06/28 01:57:54;;;;;;;9.90;2.88;;;12.70;91.50;;;;;;5054657;28;20029;-74
2021/06/28 02:00:42;;;;;;;8.68;3.00;;;12.90;91.20;;;;;;5054839;28;20123;-76
2021/06/28 02:03:16;;;;;;;10.38;3.15;;;12.90;91.20;;;;;;5052846;28;20036;-75
2021/06/28 02:05:49;;;;;;;9.05;2.90;;;13.00;91.30;;;;;;5054846;28;20025;-74
2021/06/28 02:08:18;;;;;;;7.20;2.47;;;13.10;91.10;;;;;;5054611;28;20021;-74
2021/06/28 02:10:48;;;;;;;8.43;2.75;;;13.30;90.60;;;;;;5054402;28;20023;-75
2021/06/28 02:13:18;;;;;;;9.15;3.15;;;13.30;90.30;;;;;;5054447;28;20167;-75
2021/06/28 02:15:43;;;;;;;7.13;2.70;;;13.00;91.50;;;;;;5054781;28;20021;-74
2021/06/28 02:18:09;;;;;;;10.48;2.90;;;13.10;91.10;;;;;;5054372;28;20032;-75
2021/06/28 02:20:35;;;;;;;10.40;3.00;;;13.10;90.90;;;;;;5054288;28;20037;-74
2021/06/28 02:23:19;;;;;;;8.13;2.90;;;13.00;91.20;;;;;;5054183;28;20108;-75
2021/06/28 02:25:45;;;;;;;9.48;2.97;;;13.10;91.20;;;;;;5054325;28;20024;-76
2021/06/28 02:28:11;;;;;;;9.00;2.97;;;13.10;91.30;;;;;;5054030;28;20029;-75
2021/06/28 02:30:36;;;;;;;12.77;3.53;;;13.10;91.30;;;;;;5054103;28;20029;-75
2021/06/28 02:33:02;;;;;;;7.28;2.95;;;12.90;91.50;;;;;;5052710;28;20098;-75
2021/06/28 02:35:28;;;;;;;;;;;12.90;91.60;;;;;;5054371;28;20029;-74
2021/06/28 02:37:54;;;;;;;10.40;2.90;;;13.00;91.50;;;;;;5052359;28;19962;-75
2021/06/28 02:40:20;;;;;;;7.95;2.55;;;13.10;91.00;;;;;;5053830;28;20036;-74
2021/06/28 02:42:45;;;;;;;8.63;2.60;;;13.20;90.60;;;;;;5053847;28;20029;-75
2021/06/28 02:45:11;;;;;;;11.63;2.83;;;13.20;90.90;;;;;;5053962;28;20033;-76
2021/06/28 02:47:37;;;;;;;9.25;3.10;;;13.20;90.80;;;;;;5053854;28;20033;-76
2021/06/28 02:50:12;;;;;;;9.57;3.08;;;13.20;91.00;;;;;;5053722;28;20071;-76
2021/06/28 02:52:40;;;;;;;10.23;2.97;;;13.20;91.00;;;;;;5053718;28;20024;-75
2021/06/28 02:55:07;;;;;;;9.88;3.08;;;13.20;91.10;;;;;;5053839;28;20025;-75
2021/06/28 02:57:33;;;;;;;7.13;2.90;;;13.30;91.30;;;;;;5054001;28;20020;-76
2021/06/28 02:59:59;;;;;;;;;;;13.30;91.00;;;;;;5053947;28;20029;-74
2021/06/28 03:02:25;;;;;;;7.70;2.67;;;13.30;90.80;;;;;;5052191;28;20266;-75
2021/06/28 03:04:51;;;;;;;5.72;2.42;;;13.10;91.20;;;;;;5052129;28;20127;-75
2021/06/28 03:07:17;;;;;;;8.82;2.90;;;13.20;90.90;;;;;;5053301;28;20025;-75
2021/06/28 03:09:43;;;;;;;9.50;2.78;;;13.20;90.70;;;;;;5052905;28;20017;-75
2021/06/28 03:12:12;;;;;;;8.00;3.38;;;13.10;91.20;;;;;;5053334;28;20096;-75
2021/06/28 03:14:38;;;;;;;6.40;2.50;;;13.20;91.00;;;;;;5053438;28;20105;-74
2021/06/28 03:17:04;;;;;;;6.32;2.38;;;13.30;90.90;;;;;;5051970;28;20029;-75
2021/06/28 03:19:30;;;;;;;6.18;2.40;;;13.10;90.70;;;;;;5053506;28;20024;-76
2021/06/28 03:21:56;;;;;;;9.57;2.80;;;13.40;90.30;;;;;;5053391;28;20091;-76
2021/06/28 03:24:22;;;;;;;7.40;2.50;;;13.40;89.70;;;;;;5053124;28;20029;-75
2021/06/28 03:26:47;;;;;;;12.07;2.75;;;13.40;90.30;;;;;;5053195;28;20029;-76
2021/06/28 03:29:13;;;;;;;7.45;2.70;;;13.30;90.60;;;;;;5053138;28;20047;-75
2021/06/28 03:31:39;;;;;;;9.90;2.72;;;13.40;90.50;;;;;;5053134;28;20523;-76
2021/06/28 03:34:05;;;;;;;9.63;2.80;;;13.40;91.00;;;;;;5053096;28;20070;-74
2021/06/28 03:36:30;;;;;;;8.27;2.80;;;13.50;90.80;;;;;;5053114;28;20033;-74
2021/06/28 03:38:56;;;;;;;8.63;2.50;;;13.40;91.50;;;;;;5053196;28;20032;-75
2021/06/28 03:41:22;;;;;;;6.53;2.50;;;13.60;90.90;;;;;;5053031;28;20393;-75
2021/06/28 03:43:48;;;;;;;6.78;2.33;;;13.80;90.60;;;;;;5053031;28;20025;-76
2021/06/28 03:46:14;;;;;;;8.40;2.50;;;13.80;90.70;;;;;;5052976;28;20029;-76
2021/06/28 03:48:40;;;;;;;10.60;2.47;;;13.80;90.40;;;;;;5052956;28;20021;-74
2021/06/28 03:51:06;;;;;;;9.15;2.40;;;13.80;90.70;;;;;;5052927;28;20576;-75
2021/06/28 03:53:32;;;;;;;7.38;2.40;;;13.70;90.90;;;;;;5052916;28;20023;-74
2021/06/28 03:56:06;;;;;;;;;;;13.60;91.20;;;;;;5053258;28;20035;-75
2021/06/28 03:58:33;;;;;;;8.07;2.42;;;13.50;91.80;;;;;;5053118;28;19958;-75
2021/06/28 04:00:59;;;;;;;8.35;2.47;;;13.40;92.10;;;;;;5052903;28;20025;-74
2021/06/28 04:03:27;;;;;;;7.57;2.47;;;13.30;92.30;;;;;;5051554;28;20392;-75
2021/06/28 04:05:52;;;;;;;10.77;2.50;;;13.30;92.50;;;;;;5052721;28;20116;-74
2021/06/28 04:08:18;;;;;;;8.18;2.83;;;13.30;92.70;;;;;;5052843;28;20092;-75
2021/06/28 04:10:44;;;;;;;13.13;2.75;;;13.40;92.50;;;;;;5052852;28;20056;-75
2021/06/28 04:13:09;;;;;;;9.60;2.50;;;13.40;92.90;;;;;;5052765;28;20568;-76
2021/06/28 04:15:35;;;;;;;15.00;2.92;;;13.30;93.30;;;;;;5052504;28;20120;-75
2021/06/28 04:18:02;;;;;;;9.40;2.60;;;13.30;93.80;;;;;;5052729;28;20061;-74
2021/06/28 04:20:28;;;;;;;9.60;2.53;;;13.20;93.80;;;;;;5052761;28;20060;-75
2021/06/28 04:22:54;;;;;;;8.43;2.72;;;13.30;93.80;;;;;;5055928;28;20029;-75
2021/06/28 04:25:21;;;;;;;10.10;2.58;;;13.40;93.60;;;;;;5056525;28;20033;-77
2021/06/28 04:27:48;;;;;;;9.27;2.90;;;13.50;93.80;;;;;;5055143;28;20029;-75
2021/06/28 04:30:16;;;;;;;8.75;2.90;;;13.50;93.80;;;;;;5056667;28;20028;-74
2021/06/28 04:32:42;;;;;;;7.82;2.40;;;13.50;93.80;;;;;;5056482;28;20444;-76
2021/06/28 04:35:09;;;;;;;;;;;13.60;93.40;;;;;;5056747;28;20018;-74
2021/06/28 04:37:35;;;;;;;8.48;2.63;;;13.60;93.20;;;;;;5056079;28;19916;-76
2021/06/28 04:40:02;;;;;;;;;;;13.60;93.10;;;;;;5056912;28;20473;-75
2021/06/28 04:42:28;;;;;;;7.47;2.67;;;13.60;93.30;;;;;;5056220;28;19905;-75
2021/06/28 04:44:54;;;;;;;9.95;2.67;;;13.60;93.10;;;;;;5056491;28;20087;-75
2021/06/28 04:47:19;;;;;;;6.53;2.22;;;13.70;93.10;;;;;;5056061;28;20115;-75
2021/06/28 04:49:45;;;;;;;7.60;2.40;;;13.70;93.10;;;;;;5056587;28;20017;-75
2021/06/28 04:52:11;;;;;;;6.68;2.22;;;13.80;93.00;;;;;;5055999;28;20450;-76
2021/06/28 04:54:37;;;;;;;7.50;2.20;;;13.80;93.10;;;;;;5056174;28;20108;-74
2021/06/28 04:57:03;;;;;;;6.63;2.50;;;14.00;92.70;;;;;;5056215;28;20438;-75
2021/06/28 04:59:28;;;;;;;5.70;2.03;;;14.10;92.40;;;;;;5055941;28;20150;-77
2021/06/28 05:01:54;;;;;;;10.50;2.35;;;14.10;92.40;;;;;;5055943;28;20107;-75
2021/06/28 05:04:21;;;;;;;8.20;2.50;;;14.10;91.90;;;;;;5055811;28;20496;-76
2021/06/28 05:06:47;;;;;;;8.95;2.50;;;14.10;92.30;;;;;;5055957;28;20047;-75
2021/06/28 05:09:14;;;;;;;10.10;2.60;;;14.10;92.10;;;;;;5055680;28;20096;-75
2021/06/28 05:11:39;;;;;;;;;;;14.10;92.00;;;;;;5056215;28;20024;-74
2021/06/28 05:14:05;;;;;;;7.53;2.10;;;14.10;91.90;;;;;;5054316;28;19905;-76
2021/06/28 05:16:31;;;;;;;10.07;2.72;;;14.10;92.40;;;;;;5055591;28;20029;-75
2021/06/28 05:18:57;;;;;;;7.25;2.00;;;14.10;92.10;;;;;;5055543;28;20033;-76
2021/06/28 05:21:23;;;;;;;11.63;3.53;;;14.20;91.70;;;;;;5055661;28;20446;-76
2021/06/28 05:23:49;;;;;;;7.10;2.22;;;14.20;92.10;;;;;;5055415;28;20029;-76
2021/06/28 05:26:14;;;;;;;10.23;2.60;;;14.20;91.70;;;;;;5055338;28;20063;-76
2021/06/28 05:28:40;;;;;;;8.93;2.55;;;14.30;91.60;;;;;;5055379;28;20017;-76
2021/06/28 05:31:06;;;;;;;9.90;2.80;;;14.30;91.80;;;;;;5055643;28;20037;-76
2021/06/28 05:33:32;;;;;;;9.48;2.55;;;14.30;91.70;;;;;;5054866;28;20033;-76
2021/06/28 05:35:57;;;;;;;;;;;14.30;92.00;;;;;;5055701;28;20040;-75
2021/06/28 05:38:23;;;;;;;7.63;2.50;;;14.40;91.90;;;;;;5054728;28;20347;-76
2021/06/28 05:40:49;;;;;;;11.48;2.90;;;14.30;91.70;;;;;;5055051;28;20040;-75
2021/06/28 05:43:14;;;;;;;;;;;14.30;92.00;;;;;;5055564;28;20108;-76
2021/06/28 05:45:40;;;;;;;11.38;2.80;;;14.40;91.80;;;;;;5053678;28;20288;-76
2021/06/28 05:48:06;;;;;;;9.13;2.60;;;14.40;91.50;;;;;;5054878;28;20021;-76
2021/06/28 05:50:32;;;;;;;;;;;14.60;91.20;;;;;;5055255;28;20036;-75
2021/06/28 05:52:58;;;;;;;9.55;2.70;;;14.60;91.10;;;;;;5055212;28;19971;-75
2021/06/28 05:55:24;;;;;;;7.60;2.50;;;14.80;90.90;;;;;;5054688;28;20024;-75
2021/06/28 05:57:51;;;;;;;;;;;14.80;90.60;;;;;;5054880;28;20032;-76
2021/06/28 06:00:19;;;;;;;7.95;2.70;;;14.90;91.00;;;;;;5054666;28;19904;-75
2021/06/28 06:02:44;;;;;;;8.95;2.50;;;14.90;91.20;;;;;;5054585;28;20096;-76
2021/06/28 06:05:11;;;;;;;7.90;3.30;;;15.10;90.80;;;;;;5054566;28;20509;-76
2021/06/28 06:07:38;;;;;;;11.90;2.90;;;15.00;90.50;;;;;;5054350;28;20036;-75
2021/06/28 06:10:12;;;;;;;7.10;2.38;;;15.10;91.00;;;;;;5054337;28;20021;-75
2021/06/28 06:12:39;;;;;;;14.00;2.72;;;15.30;90.40;;;;;;5054581;28;20508;-76
2021/06/28 06:15:05;;;;;;;;;;;15.40;90.70;;;;;;5054839;28;20048;-75
2021/06/28 06:17:31;;;;;;;12.10;2.58;;;15.70;90.10;;;;;;5054550;28;19905;-75
2021/06/28 06:19:58;;;;;;;;;;;15.90;88.80;;;;;;5054955;28;20051;-76
2021/06/28 06:22:24;;;;;;;9.68;2.60;;;16.00;88.30;;;;;;5054401;28;20303;-75
2021/06/28 06:24:50;;;;;;;;;;;16.20;88.50;;;;;;5054681;28;20103;-74
2021/06/28 06:27:16;;;;;;;9.48;2.50;;;16.40;86.90;;;;;;5052728;28;19916;-76
2021/06/28 06:29:44;;;;;;;7.60;2.67;;;16.50;84.40;;;;;;5054073;28;20182;-74
2021/06/28 06:32:10;;;;;;;5.88;2.20;;;16.70;83.80;;;;;;5054227;28;20032;-74
2021/06/28 06:34:36;;;;;;;9.65;2.72;;;16.60;83.90;;;;;;5054054;28;20021;-75
2021/06/28 06:37:01;;;;;;;;;;;16.40;84.30;;;;;;5054129;28;20459;-76
2021/06/28 06:39:27;;;;;;;6.63;2.35;;;16.60;84.50;;;;;;5053739;28;19904;-77
2021/06/28 06:41:53;;;;;;;;;;;16.60;84.60;;;;;;5054275;28;20017;-74
2021/06/28 06:44:18;;;;;;;7.00;2.40;;;16.70;83.90;;;;;;5053212;28;19904;-75
2021/06/28 06:46:44;;;;;;;;;;;16.80;84.30;;;;;;5054144;28;20029;-75
2021/06/28 06:49:10;;;;;;;10.32;2.40;;;17.00;83.70;;;;;;5053737;28;20428;-76
2021/06/28 06:51:35;;;;;;;;;;;16.80;83.80;;;;;;5054144;28;20082;-76
2021/06/28 06:54:01;;;;;;;7.68;2.63;;;16.60;84.90;;;;;;5053819;28;19913;-75
2021/06/28 06:56:27;;;;;;;;;;;16.40;85.30;;;;;;5054034;28;20051;-75
2021/06/28 06:58:53;;;;;;;11.82;2.88;;;16.40;85.90;;;;;;5053564;28;20000;-76
2021/06/28 07:01:18;;;;;;;;;;;16.50;84.60;;;;;;5053995;28;20493;-77
2021/06/28 07:03:45;;;;;;;7.75;2.35;;;16.60;84.90;;;;;;5053536;28;19904;-75
2021/06/28 07:06:11;;;;;;;7.88;2.50;;;16.70;85.30;;;;;;5053544;28;20039;-74
2021/06/28 07:08:37;;;;;;;7.95;2.58;;;16.50;85.20;;;;;;5053583;28;20021;-76
2021/06/28 07:11:06;;;;;;;9.45;2.67;;;16.60;85.00;;;;;;5053422;28;20024;-76
2021/06/28 07:13:33;;;;;;;9.70;2.72;;;16.60;84.60;;;;;;5053392;28;20025;-76
2021/06/28 07:15:59;;;;;;;6.78;2.53;;;16.80;84.60;;;;;;5053335;28;20032;-76
2021/06/28 07:18:25;;;;;;;8.05;2.58;;;17.20;83.60;;;;;;5053360;28;20025;-76
2021/06/28 07:20:50;;;;;;;;;;;17.50;81.20;;;;;;5053696;28;20021;-74
2021/06/28 07:23:16;;;;;;;9.02;2.30;;;17.70;81.50;;;;;;5053201;28;19940;-75
2021/06/28 07:25:42;;;;;;;;;;;17.80;80.70;;;;;;5053612;28;20037;-75
2021/06/28 07:28:09;;;;;;;8.30;2.03;;;17.80;78.70;;;;;;5051776;28;19962;-76
2021/06/28 07:30:35;;;;;;;9.80;2.65;;;17.80;80.50;;;;;;5053195;28;20099;-76
2021/06/28 07:33:01;;;;;;;10.07;2.33;;;17.70;79.30;;;;;;5053161;28;20055;-75
2021/06/28 07:35:26;;;;;;;10.95;2.40;;;17.90;79.00;;;;;;5052828;28;20053;-74
2021/06/28 07:37:52;;;;;;;7.78;2.42;;;18.40;77.10;;;;;;5052877;28;20056;-75
2021/06/28 07:40:19;;;;;;;8.68;2.60;;;18.50;77.30;;;;;;5053137;28;20025;-76
2021/06/28 07:42:47;;;;;;;6.75;2.38;;;18.90;75.50;;;;;;5052971;28;20543;-75
2021/06/28 07:45:14;;;;;;;10.10;2.38;;;18.80;76.10;;;;;;5052939;28;20028;-75
2021/06/28 07:47:40;;;;;;;7.22;2.47;;;18.50;75.20;;;;;;5052932;28;20033;-75
2021/06/28 07:50:06;;;;;;;8.60;2.28;;;18.30;76.90;;;;;;5052929;28;20021;-76
2021/06/28 07:52:34;;;;;;;7.25;2.33;;;18.70;76.50;;;;;;5052807;28;20493;-76
2021/06/28 07:55:01;;;;;;;9.30;2.17;;;18.70;76.20;;;;;;5053155;28;20606;-75
2021/06/28 07:57:27;;;;;;;9.43;2.55;;;18.70;76.60;;;;;;5056949;28;20507;-76
2021/06/28 07:59:53;;;;;;;6.80;2.05;;;18.80;75.30;;;;;;5056964;28;20570;-76
2021/06/28 08:02:18;;;;;;;12.32;2.30;;;18.80;75.40;;;;;;5055612;28;20066;-76
2021/06/28 08:04:44;;;;;;;8.52;2.17;;;18.90;75.20;;;;;;5056841;28;20036;-76
2021/06/28 08:07:10;;;;;;;7.40;2.33;;;19.00;74.90;;;;;;5056768;28;20025;-76
2021/06/28 08:09:36;;;;;;;9.82;2.47;;;18.90;75.70;;;;;;5056742;28;20074;-75
2021/06/28 08:12:02;;;;;;;7.65;2.53;;;19.00;75.00;;;;;;5056759;28;20104;-76
2021/06/28 08:14:27;;;;;;;12.90;2.75;;;19.10;74.40;;;;;;5056890;28;20435;-75
2021/06/28 08:16:54;;;;;;;9.77;2.38;;;19.00;75.10;;;;;;5056644;28;20055;-76
2021/06/28 08:19:19;;;;;;;9.10;2.42;;;18.70;75.70;;;;;;5056545;28;20029;-74
2021/06/28 08:21:47;;;;;;;9.82;2.50;;;18.60;76.80;;;;;;5056543;28;20401;-76
2021/06/28 08:24:13;;;;;;;8.85;2.55;;;18.50;77.50;;;;;;5056699;28;20025;-77
2021/06/28 08:26:39;;;;;;;9.15;2.33;;;18.30;78.10;;;;;;5056598;28;20025;-76
2021/06/28 08:29:06;;;;;;;7.57;2.30;;;18.70;76.10;;;;;;5056431;28;20017;-76
2021/06/28 08:31:36;;;;;;;8.85;3.08;;;18.70;75.30;;;;;;5056698;28;20052;-75
2021/06/28 08:34:03;;;;;;;9.38;2.30;;;18.70;74.60;;;;;;5056467;28;20021;-76
2021/06/28 08:36:29;;;;;;;7.35;2.20;;;18.40;75.50;;;;;;5056127;28;20096;-76
2021/06/28 08:38:56;;;;;;;7.35;2.10;;;18.50;76.10;;;;;;5056304;28;20055;-75
2021/06/28 08:41:25;;;;;;;6.75;2.10;;;18.70;74.70;;;;;;5056200;28;20512;-76
2021/06/28 08:43:51;;;;;;;7.88;1.80;;;18.80;73.90;;;;;;5056159;28;20028;-76
2021/06/28 08:46:17;;;;;;;7.25;2.20;;;18.90;74.40;;;;;;5056099;28;20029;-76
2021/06/28 08:48:47;;;;;;;8.40;2.20;;;19.00;73.40;;;;;;5056053;28;20021;-75
2021/06/28 08:51:14;;;;;;;11.80;2.95;;;19.00;74.80;;;;;;5056230;28;20138;-75
2021/06/28 08:53:40;;;;;;;6.22;2.50;;;19.00;75.10;;;;;;5056178;28;20024;-75
2021/06/28 08:56:07;;;;;;;6.78;2.15;;;19.10;74.40;;;;;;5054629;28;20127;-76
2021/06/28 08:58:39;;;;;;;8.70;2.58;;;19.40;74.20;;;;;;5055941;28;20107;-76
2021/06/28 09:01:06;;;;;;;7.35;2.33;;;19.30;73.80;;;;;;5055871;28;20504;-75
2021/06/28 09:03:33;;;;;;;7.72;2.50;;;19.10;74.00;;;;;;5055765;28;20025;-75
2021/06/28 09:06:06;;;;;;;7.18;2.58;;;18.90;75.00;;;;;;5055797;28;20028;-75
2021/06/28 09:08:34;;;;;;;5.75;2.10;;;19.00;74.90;;;;;;5053408;28;20524;-75
2021/06/28 09:11:02;;;;;;;9.25;2.22;;;19.10;73.80;;;;;;5055661;28;20021;-75
2021/06/28 09:13:40;;;;;;;8.25;2.30;;;19.30;71.90;;;;;;5055760;28;20067;-75
2021/06/28 09:16:33;;;;;;;7.65;2.00;;;19.40;71.00;;;;;;5055386;28;20139;-76
2021/06/28 09:19:13;;;;;;;17.27;3.30;;;18.90;72.60;;;;;;5054480;28;20071;-75
2021/06/28 09:21:44;;;;;;;9.70;2.42;;;18.60;73.20;;;;;;5053885;28;20075;-76
2021/06/28 09:24:35;;;;;;;9.05;2.45;;;18.50;74.70;;;;;;5055541;28;20441;-75
2021/06/28 09:27:10;;;;;;;9.95;2.58;;;18.30;74.10;;;;;;5055438;28;20021;-75
2021/06/28 09:29:39;;;;;;;10.07;3.45;;;17.70;79.20;;;;;;5055339;28;20108;-77
2021/06/28 09:32:07;;;;;;;7.82;3.05;;;17.30;82.60;;;;;;5055432;28;20025;-74
2021/06/28 09:34:33;;;;;;;9.23;3.33;;;16.90;86.80;;;;;;5055513;28;20021;-76
2021/06/28 09:36:59;;;;;;;;;;;16.80;87.60;;;;;;5055257;28;20115;-76
2021/06/28 09:39:38;;;;;;;8.45;2.83;;;16.90;90.20;;;;;;5055166;28;20270;-77
2021/06/28 09:42:07;;;;;;;8.55;2.70;;;17.20;90.70;;;;;;5055247;28;20070;-76
2021/06/28 09:44:35;;;;;;;12.85;3.05;;;17.50;90.10;;;;;;5055066;28;20053;-76
2021/06/28 09:47:04;;;;;;;9.32;2.83;;;17.90;88.30;;;;;;5054906;28;20389;-77
2021/06/28 09:49:30;;;;;;;8.00;2.70;;;18.40;86.30;;;;;;5055110;28;20024;-76
2021/06/28 09:51:56;;;;;;;8.57;2.70;;;19.10;85.40;;;;;;5054845;28;20465;-76
2021/06/28 09:54:22;;;;;;;7.15;2.75;;;19.30;83.90;;;;;;5054890;28;20024;-76
2021/06/28 09:56:55;;;;;;;7.82;2.63;;;19.50;80.90;;;;;;5053442;28;20035;-76
2021/06/28 09:59:26;;;;;;;8.32;2.72;;;19.80;79.80;;;;;;5055023;28;20048;-77
2021/06/28 10:02:22;;;;;;;9.40;2.92;;;19.80;80.30;;;;;;5054934;28;20033;-76
2021/06/28 10:07:29;;;;;;;7.95;2.65;;;19.80;80.70;;;;;;5054231;28;20025;-76
2021/06/28 10:10:15;;;;;;;8.25;2.45;;;20.40;78.50;;;;;;5054677;28;20021;-77
2021/06/28 10:12:45;;;;;;;6.90;2.40;;;21.10;77.50;;;;;;5054568;28;20025;-75
2021/06/28 10:15:15;;;;;;;6.45;2.20;;;21.90;73.60;;;;;;5054930;28;20009;-76
2021/06/28 10:17:41;;;;;;;7.75;2.20;;;22.40;71.60;;;;;;5054454;28;20036;-77
2021/06/28 10:20:09;;;;;;;10.32;2.67;;;22.60;70.10;;;;;;5053354;28;20033;-77
2021/06/28 10:22:37;;;;;;;9.43;2.88;;;22.20;67.60;;;;;;5054326;28;20032;-75
2021/06/28 10:25:05;;;;;;;10.07;2.50;;;21.70;69.60;;;;;;5054325;28;20025;-75
2021/06/28 10:27:31;;;;;;;9.20;2.20;;;22.10;69.70;;;;;;5054298;28;20071;-76
2021/06/28 10:29:57;;;;;;;6.50;2.10;;;22.30;70.70;;;;;;5054323;28;20025;-76
2021/06/28 10:32:23;;;;;;;6.88;2.20;;;22.50;68.40;;;;;;5054174;28;20033;-77
2021/06/28 10:34:52;;;;;;;9.50;2.15;;;22.60;69.30;;;;;;5054063;28;20057;-76
2021/06/28 10:37:33;;;;;;;7.65;2.33;;;22.60;69.10;;;;;;5052487;28;20051;-77
2021/06/28 10:40:01;;;;;;;7.57;2.10;;;22.30;70.20;;;;;;5053981;28;20079;-74
2021/06/28 10:42:32;;;;;;;6.35;1.95;;;22.20;68.90;;;;;;5054011;28;20032;-75
2021/06/28 10:44:59;;;;;;;8.93;2.20;;;21.60;71.30;;;;;;5053919;28;20088;-76
2021/06/28 10:47:26;;;;;;;9.25;2.00;;;21.50;71.30;;;;;;5054073;28;20116;-75
2021/06/28 10:49:52;;;;;;;8.57;2.30;;;21.10;72.10;;;;;;5054025;28;20082;-76
2021/06/28 10:52:37;;;;;;;9.95;2.38;;;20.90;74.90;;;;;;5053805;28;20021;-75
2021/06/28 10:55:18;;;;;;;6.85;2.05;;;20.90;74.00;;;;;;5053842;28;20021;-75
2021/06/28 10:57:45;;;;;;;8.40;2.20;;;21.00;74.10;;;;;;5053638;28;20029;-76
2021/06/28 11:00:11;;;;;;;9.25;2.35;;;20.90;74.50;;;;;;5053703;28;20057;-77
2021/06/28 11:02:38;;;;;;;7.32;2.13;;;21.10;73.90;;;;;;5053715;28;20104;-75
2021/06/28 11:05:07;;;;;;;8.07;2.10;;;21.50;73.40;;;;;;5053505;28;20520;-75
2021/06/28 11:07:50;;;;;;;10.13;2.30;;;22.10;69.80;;;;;;5053381;28;20032;-75
2021/06/28 11:10:39;;;;;;;8.27;2.10;;;22.20;69.30;;;;;;5052153;28;20025;-77
2021/06/28 11:13:38;;;;;;;7.63;2.10;;;22.20;69.50;;;;;;5053451;28;20112;-75
2021/06/28 11:16:32;;;;;;;7.28;2.10;;;22.00;68.70;;;;;;5051971;28;20047;-76
2021/06/28 11:18:58;;;;;;;6.13;1.92;;;22.00;68.60;;;;;;5053323;28;20460;-77
2021/06/28 11:21:41;;;;;;;7.53;1.95;;;21.90;70.80;;;;;;5053541;28;20099;-76
2021/06/28 11:24:07;;;;;;;8.82;2.10;;;22.40;67.90;;;;;;5053288;28;20389;-77
2021/06/28 11:26:37;;;;;;;15.40;2.97;;;22.60;68.30;;;;;;5053075;28;20021;-76
2021/06/28 11:29:04;;;;;;;10.20;2.40;;;22.30;67.50;;;;;;5053124;28;20496;-75
2021/06/28 11:31:32;;;;;;;16.83;2.67;;;22.10;67.30;;;;;;5052797;28;20481;-76
2021/06/28 11:34:00;;;;;;;30.35;4.53;;;21.90;68.60;;;;;;5051793;28;20025;-77
2021/06/28 11:36:36;;;;;;;11.75;2.28;;;21.80;69.50;;;;;;5052853;28;20024;-75
2021/06/28 11:39:25;;;;;;;8.23;2.05;;;21.90;69.70;;;;;;5053418;28;20025;-77
2021/06/28 11:42:22;;;;;;;8.15;1.92;;;22.00;70.10;;;;;;5052694;28;20036;-77
2021/06/28 11:44:58;;;;;;;22.52;4.05;;;22.00;70.00;;;;;;5053207;28;20027;-75
2021/06/28 11:47:50;;;;;;;7.93;2.20;;;21.70;70.70;;;;;;5053412;28;20021;-76
2021/06/28 11:50:25;;;;;;;8.32;2.20;;;21.90;70.30;;;;;;5050455;28;20124;-76
2021/06/28 11:52:51;;;;;;;8.27;2.17;;;21.70;69.10;;;;;;5053376;28;20029;-77
2021/06/28 11:55:17;;;;;;;9.32;2.25;;;21.60;72.50;;;;;;5053053;28;20063;-77
2021/06/28 11:57:54;;;;;;;51.45;6.80;;;21.60;70.50;;;;;;5052832;28;20100;-76
2021/06/28 12:00:20;;;;;;;12.27;2.50;;;21.40;72.20;;;;;;5052941;28;20098;-76
2021/06/28 12:02:46;;;;;;;9.40;2.22;;;21.20;72.00;;;;;;5053495;28;20025;-77
2021/06/28 12:05:12;;;;;;;9.70;2.28;;;20.80;74.00;;;;;;5053113;28;20489;-76
2021/06/28 12:07:40;;;;;;;11.02;4.03;;;20.40;76.00;;;;;;5053253;28;20032;-75
2021/06/28 12:10:06;;;;;;;13.43;2.67;;;19.90;77.50;;;;;;5051526;28;20036;-77
2021/06/28 12:12:32;;;;;;;16.00;3.33;;;19.60;79.50;;;;;;5052948;28;20025;-74
2021/06/28 12:14:59;;;;;;;12.88;3.35;;;19.00;84.10;;;;;;5052917;28;20036;-75
2021/06/28 12:17:30;;;;;;;14.18;3.05;;;18.50;86.60;;;;;;5052723;28;20029;-75
2021/06/28 12:20:07;;;;;;;8.70;2.25;;;18.50;84.50;;;;;;5052841;28;20433;-76
2021/06/28 12:22:38;;;;;;;9.00;2.20;;;18.50;82.20;;;;;;5051306;28;20025;-76
2021/06/28 12:25:10;;;;;;;11.45;2.60;;;18.50;83.80;;;;;;5053165;28;20075;-77
2021/06/28 12:27:38;;;;;;;10.45;2.55;;;18.70;83.10;;;;;;5052827;28;20021;-76
2021/06/28 12:30:07;;;;;;;7.05;2.38;;;18.90;83.00;;;;;;5052871;28;20029;-75
2021/06/28 12:32:55;;;;;;;7.28;2.28;;;19.30;81.40;;;;;;5052601;28;20028;-77
2021/06/28 12:35:26;;;;;;;8.88;2.63;;;19.80;79.70;;;;;;5052891;28;20477;-76
2021/06/28 12:37:58;;;;;;;7.85;2.30;;;20.30;77.80;;;;;;5052421;28;20049;-77
2021/06/28 12:40:38;;;;;;;13.00;2.60;;;20.80;77.60;;;;;;5052705;28;20029;-75
2021/06/28 12:43:12;;;;;;;68.65;9.13;;;21.30;75.70;;;;;;5054470;28;20079;-75
2021/06/28 12:45:49;;;;;;;8.60;2.20;;;21.90;74.80;;;;;;5056616;28;20033;-75
2021/06/28 12:48:21;;;;;;;15.55;3.00;;;22.50;69.20;;;;;;5056213;28;20081;-77
2021/06/28 12:51:06;;;;;;;11.98;2.47;;;22.50;72.20;;;;;;5056190;28;20025;-76
2021/06/28 12:53:33;;;;;;;10.35;2.80;;;22.00;72.20;;;;;;5056071;28;20100;-76
2021/06/28 12:56:11;;;;;;;10.25;2.30;;;21.50;73.60;;;;;;5056157;28;20029;-76
2021/06/28 12:58:52;;;;;;;10.05;2.50;;;21.30;74.70;;;;;;5056095;28;20017;-75